sensor_id;sensor_type;location;lat;lon;timestamp;temperature;humidity
49793;DHT22;35690;37.536;-122.304;2022-08-01T00:00:36;28.50;47.20
49793;DHT22;35690;37.536;-122.304;2022-08-01T00:03:02;28.50;47.20
49793;DHT22;35690;37.536;-122.304;2022-08-01T00:05:29;28.60;47.20
49793;DHT22;35690;37.536;-122.304;2022-08-01T00:07:56;28.60;47.20
49793;DHT22;35690;37.536;-122.304;2022-08-01T00:10:22;28.60;47.20
49793;DHT22;35690;37.536;-122.304;2022-08-01T00:12:48;28.60;47.20
49793;DHT22;35690;37.536;-122.304;2022-08-01T00:15:16;28.70;47.20
49793;DHT22;35690;37.536;-122.304;2022-08-01T00:17:43;28.70;47.10
49793;DHT22;35690;37.536;-122.304;2022-08-01T00:20:12;28.70;46.90
49793;DHT22;35690;37.536;-122.304;2022-08-01T00:22:39;28.90;47.00
49793;DHT22;35690;37.536;-122.304;2022-08-01T00:25:06;28.90;46.90
49793;DHT22;35690;37.536;-122.304;2022-08-01T00:27:33;28.90;46.80
49793;DHT22;35690;37.536;-122.304;2022-08-01T00:29:59;28.90;46.80
49793;DHT22;35690;37.536;-122.304;2022-08-01T00:32:25;28.80;46.90
49793;DHT22;35690;37.536;-122.304;2022-08-01T00:34:55;28.90;46.80
49793;DHT22;35690;37.536;-122.304;2022-08-01T00:37:21;28.90;46.70
49793;DHT22;35690;37.536;-122.304;2022-08-01T00:39:48;29.00;46.70
49793;DHT22;35690;37.536;-122.304;2022-08-01T00:42:14;28.90;46.60
49793;DHT22;35690;37.536;-122.304;2022-08-01T00:44:41;29.00;46.60
49793;DHT22;35690;37.536;-122.304;2022-08-01T00:47:07;29.00;46.60
49793;DHT22;35690;37.536;-122.304;2022-08-01T00:49:34;29.10;46.50
49793;DHT22;35690;37.536;-122.304;2022-08-01T00:52:02;29.00;46.50
49793;DHT22;35690;37.536;-122.304;2022-08-01T00:54:30;29.10;47.00
49793;DHT22;35690;37.536;-122.304;2022-08-01T00:56:57;29.10;46.30
49793;DHT22;35690;37.536;-122.304;2022-08-01T00:59:24;29.10;46.30
49793;DHT22;35690;37.536;-122.304;2022-08-01T01:01:51;29.10;46.30
49793;DHT22;35690;37.536;-122.304;2022-08-01T01:04:17;29.20;46.30
49793;DHT22;35690;37.536;-122.304;2022-08-01T01:10:03;29.20;46.30
49793;DHT22;35690;37.536;-122.304;2022-08-01T01:12:54;29.10;46.20
49793;DHT22;35690;37.536;-122.304;2022-08-01T01:16:03;29.20;46.20
49793;DHT22;35690;37.536;-122.304;2022-08-01T01:18:37;29.20;46.00
49793;DHT22;35690;37.536;-122.304;2022-08-01T01:29:44;29.10;46.10
49793;DHT22;35690;37.536;-122.304;2022-08-01T01:32:36;29.10;46.10
49793;DHT22;35690;37.536;-122.304;2022-08-01T01:35:28;29.10;46.10
49793;DHT22;35690;37.536;-122.304;2022-08-01T01:38:01;29.10;46.00
49793;DHT22;35690;37.536;-122.304;2022-08-01T01:40:30;29.10;46.00
49793;DHT22;35690;37.536;-122.304;2022-08-01T01:42:57;29.10;46.00
49793;DHT22;35690;37.536;-122.304;2022-08-01T01:45:24;29.00;46.00
49793;DHT22;35690;37.536;-122.304;2022-08-01T01:47:52;29.00;46.00
49793;DHT22;35690;37.536;-122.304;2022-08-01T01:50:24;29.10;46.00
49793;DHT22;35690;37.536;-122.304;2022-08-01T01:52:52;29.00;45.90
49793;DHT22;35690;37.536;-122.304;2022-08-01T01:55:21;29.00;45.90
49793;DHT22;35690;37.536;-122.304;2022-08-01T01:57:50;29.00;46.00
49793;DHT22;35690;37.536;-122.304;2022-08-01T02:00:18;29.00;45.90
49793;DHT22;35690;37.536;-122.304;2022-08-01T02:02:45;29.00;45.90
49793;DHT22;35690;37.536;-122.304;2022-08-01T02:05:13;29.00;46.00
49793;DHT22;35690;37.536;-122.304;2022-08-01T02:07:40;29.00;45.90
49793;DHT22;35690;37.536;-122.304;2022-08-01T02:10:10;28.90;46.00
49793;DHT22;35690;37.536;-122.304;2022-08-01T02:12:41;28.90;46.00
49793;DHT22;35690;37.536;-122.304;2022-08-01T02:15:13;28.80;46.00
49793;DHT22;35690;37.536;-122.304;2022-08-01T02:17:46;28.80;46.00
49793;DHT22;35690;37.536;-122.304;2022-08-01T02:20:14;28.70;46.10
49793;DHT22;35690;37.536;-122.304;2022-08-01T02:22:53;28.70;46.10
49793;DHT22;35690;37.536;-122.304;2022-08-01T02:25:25;28.60;46.00
49793;DHT22;35690;37.536;-122.304;2022-08-01T02:27:59;28.60;46.10
49793;DHT22;35690;37.536;-122.304;2022-08-01T02:30:34;28.60;46.20
49793;DHT22;35690;37.536;-122.304;2022-08-01T02:33:20;28.60;46.30
49793;DHT22;35690;37.536;-122.304;2022-08-01T02:35:58;28.50;46.20
49793;DHT22;35690;37.536;-122.304;2022-08-01T02:38:27;28.50;46.30
49793;DHT22;35690;37.536;-122.304;2022-08-01T02:40:57;28.40;46.20
49793;DHT22;35690;37.536;-122.304;2022-08-01T02:43:26;28.40;46.30
49793;DHT22;35690;37.536;-122.304;2022-08-01T02:45:58;28.40;46.50
49793;DHT22;35690;37.536;-122.304;2022-08-01T02:48:26;28.40;46.40
49793;DHT22;35690;37.536;-122.304;2022-08-01T02:50:57;28.30;46.50
49793;DHT22;35690;37.536;-122.304;2022-08-01T02:53:25;28.30;46.50
49793;DHT22;35690;37.536;-122.304;2022-08-01T02:55:54;28.20;46.50
49793;DHT22;35690;37.536;-122.304;2022-08-01T02:58:21;28.20;46.50
49793;DHT22;35690;37.536;-122.304;2022-08-01T03:00:50;28.10;46.40
49793;DHT22;35690;37.536;-122.304;2022-08-01T03:03:17;28.10;46.50
49793;DHT22;35690;37.536;-122.304;2022-08-01T03:05:45;28.10;46.50
49793;DHT22;35690;37.536;-122.304;2022-08-01T03:08:12;28.00;46.70
49793;DHT22;35690;37.536;-122.304;2022-08-01T03:10:41;28.00;46.70
49793;DHT22;35690;37.536;-122.304;2022-08-01T03:13:09;27.90;46.60
49793;DHT22;35690;37.536;-122.304;2022-08-01T03:15:39;27.90;46.70
49793;DHT22;35690;37.536;-122.304;2022-08-01T03:18:08;27.80;46.60
49793;DHT22;35690;37.536;-122.304;2022-08-01T03:20:35;27.80;46.60
49793;DHT22;35690;37.536;-122.304;2022-08-01T03:23:05;27.40;46.90
49793;DHT22;35690;37.536;-122.304;2022-08-01T03:25:33;27.00;47.80
49793;DHT22;35690;37.536;-122.304;2022-08-01T03:28:05;27.10;47.70
49793;DHT22;35690;37.536;-122.304;2022-08-01T03:30:33;27.20;47.30
49793;DHT22;35690;37.536;-122.304;2022-08-01T03:33:04;27.30;47.20
49793;DHT22;35690;37.536;-122.304;2022-08-01T03:35:34;27.30;47.00
49793;DHT22;35690;37.536;-122.304;2022-08-01T03:38:03;27.30;46.90
49793;DHT22;35690;37.536;-122.304;2022-08-01T03:41:02;27.30;47.10
49793;DHT22;35690;37.536;-122.304;2022-08-01T03:43:42;27.20;46.90
49793;DHT22;35690;37.536;-122.304;2022-08-01T03:46:28;27.20;47.00
49793;DHT22;35690;37.536;-122.304;2022-08-01T03:49:00;27.20;46.90
49793;DHT22;35690;37.536;-122.304;2022-08-01T03:51:27;27.10;46.90
49793;DHT22;35690;37.536;-122.304;2022-08-01T03:53:57;27.10;46.90
49793;DHT22;35690;37.536;-122.304;2022-08-01T03:56:27;27.00;47.10
49793;DHT22;35690;37.536;-122.304;2022-08-01T03:58:59;27.00;47.00
49793;DHT22;35690;37.536;-122.304;2022-08-01T04:01:26;27.00;47.20
49793;DHT22;35690;37.536;-122.304;2022-08-01T04:03:54;26.90;47.10
49793;DHT22;35690;37.536;-122.304;2022-08-01T04:06:20;26.90;47.00
49793;DHT22;35690;37.536;-122.304;2022-08-01T04:08:47;26.80;47.00
49793;DHT22;35690;37.536;-122.304;2022-08-01T04:11:24;26.80;47.00
49793;DHT22;35690;37.536;-122.304;2022-08-01T04:13:54;26.70;47.30
49793;DHT22;35690;37.536;-122.304;2022-08-01T04:16:21;26.70;47.20
49793;DHT22;35690;37.536;-122.304;2022-08-01T04:18:48;26.70;47.10
49793;DHT22;35690;37.536;-122.304;2022-08-01T04:21:18;26.60;47.20
49793;DHT22;35690;37.536;-122.304;2022-08-01T04:23:48;26.60;47.30
49793;DHT22;35690;37.536;-122.304;2022-08-01T04:26:16;26.50;47.20
49793;DHT22;35690;37.536;-122.304;2022-08-01T04:28:45;26.40;47.40
49793;DHT22;35690;37.536;-122.304;2022-08-01T04:31:14;26.40;47.40
49793;DHT22;35690;37.536;-122.304;2022-08-01T04:33:46;26.50;47.40
49793;DHT22;35690;37.536;-122.304;2022-08-01T04:36:14;26.40;47.40
49793;DHT22;35690;37.536;-122.304;2022-08-01T04:38:46;26.40;47.50
49793;DHT22;35690;37.536;-122.304;2022-08-01T04:41:14;26.20;47.50
49793;DHT22;35690;37.536;-122.304;2022-08-01T04:43:41;26.20;47.60
49793;DHT22;35690;37.536;-122.304;2022-08-01T04:46:10;26.10;47.60
49793;DHT22;35690;37.536;-122.304;2022-08-01T04:48:39;26.10;47.60
49793;DHT22;35690;37.536;-122.304;2022-08-01T04:51:15;26.10;47.70
49793;DHT22;35690;37.536;-122.304;2022-08-01T04:53:43;26.10;47.80
49793;DHT22;35690;37.536;-122.304;2022-08-01T04:56:13;26.00;47.80
49793;DHT22;35690;37.536;-122.304;2022-08-01T04:58:43;26.00;48.00
49793;DHT22;35690;37.536;-122.304;2022-08-01T05:01:10;25.90;47.90
49793;DHT22;35690;37.536;-122.304;2022-08-01T05:03:37;25.90;47.90
49793;DHT22;35690;37.536;-122.304;2022-08-01T05:06:03;25.80;48.10
49793;DHT22;35690;37.536;-122.304;2022-08-01T05:08:30;25.80;48.10
49793;DHT22;35690;37.536;-122.304;2022-08-01T05:10:56;25.80;48.20
49793;DHT22;35690;37.536;-122.304;2022-08-01T05:13:23;25.70;48.10
49793;DHT22;35690;37.536;-122.304;2022-08-01T05:15:49;25.70;48.20
49793;DHT22;35690;37.536;-122.304;2022-08-01T05:18:16;25.60;48.30
49793;DHT22;35690;37.536;-122.304;2022-08-01T05:20:42;25.70;48.40
49793;DHT22;35690;37.536;-122.304;2022-08-01T05:23:08;25.60;48.40
49793;DHT22;35690;37.536;-122.304;2022-08-01T05:25:35;25.60;48.40
49793;DHT22;35690;37.536;-122.304;2022-08-01T05:28:02;25.50;48.60
49793;DHT22;35690;37.536;-122.304;2022-08-01T05:30:29;25.50;48.50
49793;DHT22;35690;37.536;-122.304;2022-08-01T05:32:57;25.50;48.70
49793;DHT22;35690;37.536;-122.304;2022-08-01T05:35:23;25.40;48.70
49793;DHT22;35690;37.536;-122.304;2022-08-01T05:37:50;25.30;48.90
49793;DHT22;35690;37.536;-122.304;2022-08-01T05:40:16;25.30;48.80
49793;DHT22;35690;37.536;-122.304;2022-08-01T05:42:43;25.30;48.90
49793;DHT22;35690;37.536;-122.304;2022-08-01T05:45:09;25.30;48.80
49793;DHT22;35690;37.536;-122.304;2022-08-01T05:47:36;25.20;49.10
49793;DHT22;35690;37.536;-122.304;2022-08-01T05:50:04;25.20;48.90
49793;DHT22;35690;37.536;-122.304;2022-08-01T05:52:31;25.20;49.00
49793;DHT22;35690;37.536;-122.304;2022-08-01T05:54:57;25.10;49.10
49793;DHT22;35690;37.536;-122.304;2022-08-01T05:57:23;25.10;49.30
49793;DHT22;35690;37.536;-122.304;2022-08-01T05:59:50;25.20;49.00
49793;DHT22;35690;37.536;-122.304;2022-08-01T06:02:16;25.10;49.20
49793;DHT22;35690;37.536;-122.304;2022-08-01T06:04:42;25.00;49.30
49793;DHT22;35690;37.536;-122.304;2022-08-01T06:07:09;24.90;49.30
49793;DHT22;35690;37.536;-122.304;2022-08-01T06:09:35;24.90;49.50
49793;DHT22;35690;37.536;-122.304;2022-08-01T06:12:02;24.90;49.50
49793;DHT22;35690;37.536;-122.304;2022-08-01T06:14:29;24.90;49.60
49793;DHT22;35690;37.536;-122.304;2022-08-01T06:16:55;24.80;49.70
49793;DHT22;35690;37.536;-122.304;2022-08-01T06:19:22;24.80;49.70
49793;DHT22;35690;37.536;-122.304;2022-08-01T06:21:48;24.70;49.90
49793;DHT22;35690;37.536;-122.304;2022-08-01T06:24:15;24.70;49.90
49793;DHT22;35690;37.536;-122.304;2022-08-01T06:26:41;24.80;49.90
49793;DHT22;35690;37.536;-122.304;2022-08-01T06:29:08;24.70;49.80
49793;DHT22;35690;37.536;-122.304;2022-08-01T06:31:34;24.60;50.10
49793;DHT22;35690;37.536;-122.304;2022-08-01T06:34:00;24.60;50.00
49793;DHT22;35690;37.536;-122.304;2022-08-01T06:36:27;24.50;50.20
49793;DHT22;35690;37.536;-122.304;2022-08-01T06:38:53;24.60;50.30
49793;DHT22;35690;37.536;-122.304;2022-08-01T06:41:20;24.50;50.10
49793;DHT22;35690;37.536;-122.304;2022-08-01T06:43:46;24.50;50.30
49793;DHT22;35690;37.536;-122.304;2022-08-01T06:46:12;24.50;50.10
49793;DHT22;35690;37.536;-122.304;2022-08-01T06:48:39;24.50;50.10
49793;DHT22;35690;37.536;-122.304;2022-08-01T06:51:05;24.40;50.30
49793;DHT22;35690;37.536;-122.304;2022-08-01T06:53:37;24.30;50.40
49793;DHT22;35690;37.536;-122.304;2022-08-01T06:56:05;24.30;50.50
49793;DHT22;35690;37.536;-122.304;2022-08-01T06:58:32;24.40;50.40
49793;DHT22;35690;37.536;-122.304;2022-08-01T07:01:00;24.30;50.30
49793;DHT22;35690;37.536;-122.304;2022-08-01T07:03:27;24.40;50.40
49793;DHT22;35690;37.536;-122.304;2022-08-01T07:05:53;24.50;50.40
49793;DHT22;35690;37.536;-122.304;2022-08-01T07:08:20;24.50;50.00
49793;DHT22;35690;37.536;-122.304;2022-08-01T07:10:47;24.50;50.10
49793;DHT22;35690;37.536;-122.304;2022-08-01T07:13:13;24.50;50.20
49793;DHT22;35690;37.536;-122.304;2022-08-01T07:15:42;24.50;50.30
49793;DHT22;35690;37.536;-122.304;2022-08-01T07:18:09;24.50;50.10
49793;DHT22;35690;37.536;-122.304;2022-08-01T07:20:37;24.50;50.20
49793;DHT22;35690;37.536;-122.304;2022-08-01T07:23:04;24.50;50.10
49793;DHT22;35690;37.536;-122.304;2022-08-01T07:25:30;24.50;50.40
49793;DHT22;35690;37.536;-122.304;2022-08-01T07:27:56;24.40;50.40
49793;DHT22;35690;37.536;-122.304;2022-08-01T07:30:23;24.40;50.40
49793;DHT22;35690;37.536;-122.304;2022-08-01T07:32:49;24.40;50.50
49793;DHT22;35690;37.536;-122.304;2022-08-01T07:35:16;24.40;50.30
49793;DHT22;35690;37.536;-122.304;2022-08-01T07:37:42;24.40;50.30
49793;DHT22;35690;37.536;-122.304;2022-08-01T07:40:09;24.50;50.40
49793;DHT22;35690;37.536;-122.304;2022-08-01T07:42:36;24.40;50.30
49793;DHT22;35690;37.536;-122.304;2022-08-01T07:45:02;24.40;50.30
49793;DHT22;35690;37.536;-122.304;2022-08-01T07:47:29;24.20;50.50
49793;DHT22;35690;37.536;-122.304;2022-08-01T07:50:00;24.30;50.50
49793;DHT22;35690;37.536;-122.304;2022-08-01T07:52:26;24.30;50.50
49793;DHT22;35690;37.536;-122.304;2022-08-01T07:54:53;24.20;50.50
49793;DHT22;35690;37.536;-122.304;2022-08-01T07:57:19;24.30;50.50
49793;DHT22;35690;37.536;-122.304;2022-08-01T07:59:45;24.40;50.40
49793;DHT22;35690;37.536;-122.304;2022-08-01T08:02:12;24.30;50.50
49793;DHT22;35690;37.536;-122.304;2022-08-01T08:04:38;24.20;50.60
49793;DHT22;35690;37.536;-122.304;2022-08-01T08:07:05;24.20;50.60
49793;DHT22;35690;37.536;-122.304;2022-08-01T08:09:31;24.30;50.60
49793;DHT22;35690;37.536;-122.304;2022-08-01T08:11:57;24.30;50.50
49793;DHT22;35690;37.536;-122.304;2022-08-01T08:14:24;24.20;50.50
49793;DHT22;35690;37.536;-122.304;2022-08-01T08:16:50;24.20;50.70
49793;DHT22;35690;37.536;-122.304;2022-08-01T08:19:17;24.10;50.80
49793;DHT22;35690;37.536;-122.304;2022-08-01T08:21:44;24.20;50.70
49793;DHT22;35690;37.536;-122.304;2022-08-01T08:24:11;24.10;50.80
49793;DHT22;35690;37.536;-122.304;2022-08-01T08:27:04;24.10;50.70
49793;DHT22;35690;37.536;-122.304;2022-08-01T08:29:32;24.10;50.80
49793;DHT22;35690;37.536;-122.304;2022-08-01T08:31:59;24.10;50.90
49793;DHT22;35690;37.536;-122.304;2022-08-01T08:34:27;24.10;51.00
49793;DHT22;35690;37.536;-122.304;2022-08-01T08:36:54;24.00;51.00
49793;DHT22;35690;37.536;-122.304;2022-08-01T08:39:22;24.00;51.10
49793;DHT22;35690;37.536;-122.304;2022-08-01T08:41:52;23.90;51.10
49793;DHT22;35690;37.536;-122.304;2022-08-01T08:44:19;24.00;51.10
49793;DHT22;35690;37.536;-122.304;2022-08-01T08:46:52;23.90;51.20
49793;DHT22;35690;37.536;-122.304;2022-08-01T08:49:24;23.90;51.20
49793;DHT22;35690;37.536;-122.304;2022-08-01T08:51:51;24.00;51.20
49793;DHT22;35690;37.536;-122.304;2022-08-01T08:54:21;24.00;51.20
49793;DHT22;35690;37.536;-122.304;2022-08-01T08:56:49;23.90;51.20
49793;DHT22;35690;37.536;-122.304;2022-08-01T08:59:16;24.00;51.30
49793;DHT22;35690;37.536;-122.304;2022-08-01T09:01:44;24.00;51.20
49793;DHT22;35690;37.536;-122.304;2022-08-01T09:04:11;23.80;51.40
49793;DHT22;35690;37.536;-122.304;2022-08-01T09:06:38;23.90;51.10
49793;DHT22;35690;37.536;-122.304;2022-08-01T09:09:05;23.90;51.30
49793;DHT22;35690;37.536;-122.304;2022-08-01T09:11:32;24.00;51.20
49793;DHT22;35690;37.536;-122.304;2022-08-01T09:14:06;23.90;51.30
49793;DHT22;35690;37.536;-122.304;2022-08-01T09:16:36;23.90;51.40
49793;DHT22;35690;37.536;-122.304;2022-08-01T09:19:17;23.90;51.20
49793;DHT22;35690;37.536;-122.304;2022-08-01T09:21:58;23.80;51.40
49793;DHT22;35690;37.536;-122.304;2022-08-01T09:24:29;23.90;52.00
49793;DHT22;35690;37.536;-122.304;2022-08-01T09:26:59;23.80;51.40
49793;DHT22;35690;37.536;-122.304;2022-08-01T09:29:29;23.80;51.40
49793;DHT22;35690;37.536;-122.304;2022-08-01T09:31:56;23.80;51.40
49793;DHT22;35690;37.536;-122.304;2022-08-01T09:34:26;23.80;51.40
49793;DHT22;35690;37.536;-122.304;2022-08-01T09:36:59;23.70;51.60
49793;DHT22;35690;37.536;-122.304;2022-08-01T09:39:28;23.80;51.50
49793;DHT22;35690;37.536;-122.304;2022-08-01T09:41:57;23.70;51.40
49793;DHT22;35690;37.536;-122.304;2022-08-01T09:44:42;23.70;51.60
49793;DHT22;35690;37.536;-122.304;2022-08-01T09:47:09;23.60;51.70
49793;DHT22;35690;37.536;-122.304;2022-08-01T09:49:37;23.60;51.80
49793;DHT22;35690;37.536;-122.304;2022-08-01T09:52:18;23.70;51.60
49793;DHT22;35690;37.536;-122.304;2022-08-01T09:54:53;23.80;51.40
49793;DHT22;35690;37.536;-122.304;2022-08-01T09:57:22;23.70;51.60
49793;DHT22;35690;37.536;-122.304;2022-08-01T09:59:51;23.60;51.80
49793;DHT22;35690;37.536;-122.304;2022-08-01T10:02:33;23.60;51.70
49793;DHT22;35690;37.536;-122.304;2022-08-01T10:05:03;23.70;51.70
49793;DHT22;35690;37.536;-122.304;2022-08-01T10:07:30;23.70;51.90
49793;DHT22;35690;37.536;-122.304;2022-08-01T10:10:17;23.70;51.60
49793;DHT22;35690;37.536;-122.304;2022-08-01T10:12:44;23.60;51.70
49793;DHT22;35690;37.536;-122.304;2022-08-01T10:15:11;23.50;51.80
49793;DHT22;35690;37.536;-122.304;2022-08-01T10:17:41;23.60;51.90
49793;DHT22;35690;37.536;-122.304;2022-08-01T10:20:12;23.60;51.80
49793;DHT22;35690;37.536;-122.304;2022-08-01T10:22:39;23.60;51.70
49793;DHT22;35690;37.536;-122.304;2022-08-01T10:25:06;23.60;51.80
49793;DHT22;35690;37.536;-122.304;2022-08-01T10:27:36;23.60;51.90
49793;DHT22;35690;37.536;-122.304;2022-08-01T10:30:04;23.60;51.90
49793;DHT22;35690;37.536;-122.304;2022-08-01T10:32:35;23.60;52.00
49793;DHT22;35690;37.536;-122.304;2022-08-01T10:35:03;23.50;52.10
49793;DHT22;35690;37.536;-122.304;2022-08-01T10:37:30;23.60;52.00
49793;DHT22;35690;37.536;-122.304;2022-08-01T10:39:59;23.60;51.90
49793;DHT22;35690;37.536;-122.304;2022-08-01T10:42:26;23.60;52.00
49793;DHT22;35690;37.536;-122.304;2022-08-01T10:44:55;23.60;52.00
49793;DHT22;35690;37.536;-122.304;2022-08-01T10:47:27;23.50;52.00
49793;DHT22;35690;37.536;-122.304;2022-08-01T10:56:02;23.50;51.90
49793;DHT22;35690;37.536;-122.304;2022-08-01T11:01:23;23.50;52.00
49793;DHT22;35690;37.536;-122.304;2022-08-01T11:09:45;23.60;52.10
49793;DHT22;35690;37.536;-122.304;2022-08-01T11:12:09;23.50;52.30
49793;DHT22;35690;37.536;-122.304;2022-08-01T11:17:41;23.50;52.00
49793;DHT22;35690;37.536;-122.304;2022-08-01T11:20:24;23.50;52.10
49793;DHT22;35690;37.536;-122.304;2022-08-01T11:30:47;23.40;52.10
49793;DHT22;35690;37.536;-122.304;2022-08-01T11:33:16;23.40;52.30
49793;DHT22;35690;37.536;-122.304;2022-08-01T11:36:18;23.40;52.30
49793;DHT22;35690;37.536;-122.304;2022-08-01T11:41:30;23.50;52.30
49793;DHT22;35690;37.536;-122.304;2022-08-01T11:44:09;23.40;52.30
49793;DHT22;35690;37.536;-122.304;2022-08-01T11:49:26;23.30;52.50
49793;DHT22;35690;37.536;-122.304;2022-08-01T11:54:45;23.40;52.50
49793;DHT22;35690;37.536;-122.304;2022-08-01T11:57:14;23.30;52.50
49793;DHT22;35690;37.536;-122.304;2022-08-01T11:59:46;23.30;52.50
49793;DHT22;35690;37.536;-122.304;2022-08-01T12:02:26;23.40;52.50
49793;DHT22;35690;37.536;-122.304;2022-08-01T12:04:56;23.30;52.70
49793;DHT22;35690;37.536;-122.304;2022-08-01T12:07:24;23.30;52.60
49793;DHT22;35690;37.536;-122.304;2022-08-01T12:12:29;23.30;52.50
49793;DHT22;35690;37.536;-122.304;2022-08-01T12:15:07;23.20;52.50
49793;DHT22;35690;37.536;-122.304;2022-08-01T12:17:37;23.40;52.50
49793;DHT22;35690;37.536;-122.304;2022-08-01T12:20:05;23.30;52.50
49793;DHT22;35690;37.536;-122.304;2022-08-01T12:22:33;23.30;52.60
49793;DHT22;35690;37.536;-122.304;2022-08-01T12:25:10;23.30;52.50
49793;DHT22;35690;37.536;-122.304;2022-08-01T12:27:39;23.30;52.60
49793;DHT22;35690;37.536;-122.304;2022-08-01T12:30:10;23.40;52.40
49793;DHT22;35690;37.536;-122.304;2022-08-01T12:32:38;23.20;52.60
49793;DHT22;35690;37.536;-122.304;2022-08-01T12:35:18;23.20;52.70
49793;DHT22;35690;37.536;-122.304;2022-08-01T12:37:51;23.20;52.80
49793;DHT22;35690;37.536;-122.304;2022-08-01T12:40:18;23.20;52.80
49793;DHT22;35690;37.536;-122.304;2022-08-01T12:42:49;23.20;52.80
49793;DHT22;35690;37.536;-122.304;2022-08-01T12:45:19;23.10;52.90
49793;DHT22;35690;37.536;-122.304;2022-08-01T12:47:47;23.20;52.90
49793;DHT22;35690;37.536;-122.304;2022-08-01T12:50:17;23.20;52.70
49793;DHT22;35690;37.536;-122.304;2022-08-01T12:52:45;23.20;52.90
49793;DHT22;35690;37.536;-122.304;2022-08-01T12:55:14;23.20;52.80
49793;DHT22;35690;37.536;-122.304;2022-08-01T12:57:44;23.20;53.00
49793;DHT22;35690;37.536;-122.304;2022-08-01T13:00:20;23.20;52.80
49793;DHT22;35690;37.536;-122.304;2022-08-01T13:02:48;23.20;52.90
49793;DHT22;35690;37.536;-122.304;2022-08-01T13:05:15;23.10;52.90
49793;DHT22;35690;37.536;-122.304;2022-08-01T13:07:46;23.20;52.90
49793;DHT22;35690;37.536;-122.304;2022-08-01T13:10:23;23.20;52.90
49793;DHT22;35690;37.536;-122.304;2022-08-01T13:12:52;23.20;53.00
49793;DHT22;35690;37.536;-122.304;2022-08-01T13:15:31;23.10;52.90
49793;DHT22;35690;37.536;-122.304;2022-08-01T13:17:59;23.10;52.80
49793;DHT22;35690;37.536;-122.304;2022-08-01T13:20:31;23.10;53.10
49793;DHT22;35690;37.536;-122.304;2022-08-01T13:23:15;23.10;53.10
49793;DHT22;35690;37.536;-122.304;2022-08-01T13:25:49;23.10;53.20
49793;DHT22;35690;37.536;-122.304;2022-08-01T13:28:17;23.10;53.10
49793;DHT22;35690;37.536;-122.304;2022-08-01T13:31:12;23.10;53.10
49793;DHT22;35690;37.536;-122.304;2022-08-01T13:33:46;23.00;53.30
49793;DHT22;35690;37.536;-122.304;2022-08-01T13:36:14;23.00;53.10
49793;DHT22;35690;37.536;-122.304;2022-08-01T13:38:41;23.00;53.30
49793;DHT22;35690;37.536;-122.304;2022-08-01T13:41:26;23.00;53.10
49793;DHT22;35690;37.536;-122.304;2022-08-01T13:43:53;23.10;53.20
49793;DHT22;35690;37.536;-122.304;2022-08-01T13:46:20;23.00;53.30
49793;DHT22;35690;37.536;-122.304;2022-08-01T13:48:47;23.10;53.20
49793;DHT22;35690;37.536;-122.304;2022-08-01T13:51:13;23.00;53.30
49793;DHT22;35690;37.536;-122.304;2022-08-01T13:53:40;23.00;53.30
49793;DHT22;35690;37.536;-122.304;2022-08-01T13:56:06;23.10;53.10
49793;DHT22;35690;37.536;-122.304;2022-08-01T13:58:33;23.10;53.30
49793;DHT22;35690;37.536;-122.304;2022-08-01T14:00:59;23.10;53.20
49793;DHT22;35690;37.536;-122.304;2022-08-01T14:03:26;23.10;53.20
49793;DHT22;35690;37.536;-122.304;2022-08-01T14:05:52;23.10;53.20
49793;DHT22;35690;37.536;-122.304;2022-08-01T14:08:19;23.10;53.40
49793;DHT22;35690;37.536;-122.304;2022-08-01T14:10:45;23.10;53.40
49793;DHT22;35690;37.536;-122.304;2022-08-01T14:13:13;23.10;53.40
49793;DHT22;35690;37.536;-122.304;2022-08-01T14:15:40;23.00;53.30
49793;DHT22;35690;37.536;-122.304;2022-08-01T14:18:09;23.20;53.20
49793;DHT22;35690;37.536;-122.304;2022-08-01T14:20:37;23.10;53.40
49793;DHT22;35690;37.536;-122.304;2022-08-01T14:23:03;23.10;53.60
49793;DHT22;35690;37.536;-122.304;2022-08-01T14:25:30;23.00;53.50
49793;DHT22;35690;37.536;-122.304;2022-08-01T14:27:56;23.10;53.40
49793;DHT22;35690;37.536;-122.304;2022-08-01T14:30:23;23.10;53.30
49793;DHT22;35690;37.536;-122.304;2022-08-01T14:32:49;23.20;53.30
49793;DHT22;35690;37.536;-122.304;2022-08-01T14:35:15;23.10;53.40
49793;DHT22;35690;37.536;-122.304;2022-08-01T14:37:42;23.10;53.40
49793;DHT22;35690;37.536;-122.304;2022-08-01T14:40:08;23.10;53.40
49793;DHT22;35690;37.536;-122.304;2022-08-01T14:42:37;23.20;53.40
49793;DHT22;35690;37.536;-122.304;2022-08-01T14:45:04;23.10;53.40
49793;DHT22;35690;37.536;-122.304;2022-08-01T14:47:42;23.10;53.40
49793;DHT22;35690;37.536;-122.304;2022-08-01T14:50:11;23.10;53.30
49793;DHT22;35690;37.536;-122.304;2022-08-01T14:52:39;23.10;53.40
49793;DHT22;35690;37.536;-122.304;2022-08-01T14:55:10;23.10;53.40
49793;DHT22;35690;37.536;-122.304;2022-08-01T14:57:37;23.20;53.40
49793;DHT22;35690;37.536;-122.304;2022-08-01T15:00:06;23.10;53.50
49793;DHT22;35690;37.536;-122.304;2022-08-01T15:02:38;23.20;53.40
49793;DHT22;35690;37.536;-122.304;2022-08-01T15:05:05;23.20;53.40
49793;DHT22;35690;37.536;-122.304;2022-08-01T15:07:31;23.10;53.60
49793;DHT22;35690;37.536;-122.304;2022-08-01T15:09:58;23.10;53.60
49793;DHT22;35690;37.536;-122.304;2022-08-01T15:12:24;23.10;53.60
49793;DHT22;35690;37.536;-122.304;2022-08-01T15:14:51;23.10;53.70
49793;DHT22;35690;37.536;-122.304;2022-08-01T15:17:22;23.10;53.80
49793;DHT22;35690;37.536;-122.304;2022-08-01T15:19:54;23.00;53.90
49793;DHT22;35690;37.536;-122.304;2022-08-01T15:22:22;23.00;53.90
49793;DHT22;35690;37.536;-122.304;2022-08-01T15:24:50;23.10;53.80
49793;DHT22;35690;37.536;-122.304;2022-08-01T15:27:17;23.10;53.90
49793;DHT22;35690;37.536;-122.304;2022-08-01T15:29:43;23.10;54.60
49793;DHT22;35690;37.536;-122.304;2022-08-01T15:32:11;23.00;54.10
49793;DHT22;35690;37.536;-122.304;2022-08-01T15:34:38;23.00;54.10
49793;DHT22;35690;37.536;-122.304;2022-08-01T15:37:05;23.00;54.10
49793;DHT22;35690;37.536;-122.304;2022-08-01T15:39:33;23.00;54.00
49793;DHT22;35690;37.536;-122.304;2022-08-01T15:42:02;23.00;54.10
49793;DHT22;35690;37.536;-122.304;2022-08-01T15:44:30;23.00;54.30
49793;DHT22;35690;37.536;-122.304;2022-08-01T15:46:56;23.00;54.30
49793;DHT22;35690;37.536;-122.304;2022-08-01T15:49:23;23.00;54.30